Bernard A — TCWN3 — position and weather

sailwx.info

Track history (hours):
 
Tides and Currents Weather Stations Pressure Air Temp Water Temp Dewpoint Dewpoint Depression Visibility Wind Speed Wind Dir Waves Ship Positions

Bernard A

Last reported at 2015-May-19 11:20 UTC. Time now 2015-May-22 11:37 UTC.
Position N 41°21' E 029°13'.

Length 184 m; draft 7.8 m.

Type: Ship. MMSI: 271040008.

Date/timePositionNaut miles runAvg speedWind from/ knotsBaromVisibWave heightAir tempDewpointWater temp
2015-May-19 11:20N 41°21' E 029°13'911.6
2015-May-19 10:33N 41°24' E 029°24'1211.6
2015-May-19 09:33N 41°26' E 029°39'8411.5
2015-May-19 02:14N 41°47' E 031°28'1911.1
2015-May-19 00:32N 41°52' E 031°53'2310.9
2015-May-18 22:24N 41°58' E 032°23'1211.1
2015-May-18 21:18N 42°00' E 032°39'911.5
2015-May-18 20:33N 42°02' E 032°50'1211.5
2015-May-18 19:33N 42°05' E 033°05'2411.3
2015-May-18 17:26N 42°08' E 033°37'1411.4
2015-May-18 16:11N 42°09' E 033°56'711.3
2015-May-18 15:33N 42°10' E 034°06'1211.5
2015-May-18 14:31N 42°11' E 034°22'1111.7
2015-May-18 13:32N 42°11' E 034°38'1312.1
2015-May-18 12:30N 42°12' E 034°55'3811.5
2015-May-18 09:12N 42°12' E 035°46'1111.6
2015-May-18 08:14N 42°12' E 036°01'  
Track history (hours):
 
Tides and Currents Weather Stations Pressure Air Temp Water Temp Dewpoint Dewpoint Depression Visibility Wind Speed Wind Dir Waves Ship Positions

Bernard A

Last reported at 2015-May-19 11:20 UTC. Time now 2015-May-22 11:37 UTC.
Position N 41°21' E 029°13'.

Length 184 m; draft 7.8 m.

Type: Ship. MMSI: 271040008.

Date/timePositionNaut miles runAvg speedWind from/ knotsBaromVisibWave heightAir tempDewpointWater temp
2015-May-19 11:20N 41°21' E 029°13'911.6
2015-May-19 10:33N 41°24' E 029°24'1211.6
2015-May-19 09:33N 41°26' E 029°39'8411.5
2015-May-19 02:14N 41°47' E 031°28'1911.1
2015-May-19 00:32N 41°52' E 031°53'2310.9
2015-May-18 22:24N 41°58' E 032°23'1211.1
2015-May-18 21:18N 42°00' E 032°39'911.5
2015-May-18 20:33N 42°02' E 032°50'1211.5
2015-May-18 19:33N 42°05' E 033°05'2411.3
2015-May-18 17:26N 42°08' E 033°37'1411.4
2015-May-18 16:11N 42°09' E 033°56'711.3
2015-May-18 15:33N 42°10' E 034°06'1211.5
2015-May-18 14:31N 42°11' E 034°22'1111.7
2015-May-18 13:32N 42°11' E 034°38'1312.1
2015-May-18 12:30N 42°12' E 034°55'3811.5
2015-May-18 09:12N 42°12' E 035°46'1111.6
2015-May-18 08:14N 42°12' E 036°01'  

Dump ship's entire track history